createdAt,value
2018-03-21T00:02:22.980Z,25.88
2018-03-21T00:04:49.030Z,20.73
2018-03-21T00:07:15.020Z,25.23
2018-03-21T00:09:41.054Z,20.80
2018-03-21T00:12:07.090Z,15.02
2018-03-21T00:14:33.121Z,13.75
2018-03-21T00:16:59.122Z,27.27
2018-03-21T00:19:25.139Z,18.23
2018-03-21T00:21:51.437Z,22.75
2018-03-21T00:24:17.515Z,25.25
2018-03-21T00:26:44.145Z,16.90
2018-03-21T00:29:10.226Z,20.23
2018-03-21T00:31:36.253Z,23.87
2018-03-21T00:34:02.415Z,23.48
2018-03-21T00:36:29.123Z,23.17
2018-03-21T00:38:55.167Z,22.35
2018-03-21T00:41:21.173Z,21.52
2018-03-21T00:43:47.219Z,21.00
2018-03-21T00:46:13.271Z,22.65
2018-03-21T00:48:39.287Z,18.42
2018-03-21T00:51:05.280Z,19.60
2018-03-21T00:53:31.326Z,18.17
2018-03-21T00:55:57.333Z,24.60
2018-03-21T00:58:23.368Z,18.58
2018-03-21T01:00:49.350Z,20.95
2018-03-21T01:03:15.442Z,18.98
2018-03-21T01:05:41.428Z,18.45
2018-03-21T01:08:07.440Z,21.30
2018-03-21T01:10:33.542Z,19.08
2018-03-21T01:12:59.641Z,16.67
2018-03-21T01:15:25.686Z,17.87
2018-03-21T01:17:51.678Z,18.55
2018-03-21T01:20:17.770Z,17.08
2018-03-21T01:22:43.849Z,20.10
2018-03-21T01:25:09.871Z,14.80
2018-03-21T01:27:35.906Z,17.35
2018-03-21T01:30:02.021Z,22.45
2018-03-21T01:32:28.043Z,14.25
2018-03-21T01:34:54.044Z,22.00
2018-03-21T01:37:20.191Z,17.62
2018-03-21T01:39:46.290Z,19.30
2018-03-21T01:42:12.413Z,22.60
2018-03-21T01:44:38.446Z,17.62
2018-03-21T01:47:04.473Z,18.30
2018-03-21T01:49:30.550Z,18.67
2018-03-21T01:51:56.554Z,24.55
2018-03-21T01:54:22.577Z,9.98
2018-03-21T01:56:48.567Z,20.90
2018-03-21T01:59:14.593Z,16.17
2018-03-21T02:01:40.571Z,14.90
2018-03-21T02:04:06.562Z,18.10
2018-03-21T02:06:32.633Z,18.60
2018-03-21T02:08:58.682Z,17.98
2018-03-21T02:11:24.673Z,21.80
2018-03-21T02:13:50.684Z,16.48
2018-03-21T02:16:16.682Z,24.40
2018-03-21T02:18:42.694Z,23.52
2018-03-21T02:21:08.706Z,12.85
2018-03-21T02:23:34.749Z,18.55
2018-03-21T02:26:00.782Z,21.92
2018-03-21T02:28:26.808Z,22.95
2018-03-21T02:30:52.829Z,17.65
2018-03-21T02:33:18.869Z,15.40
2018-03-21T02:35:44.929Z,19.45
2018-03-21T02:38:10.939Z,15.00
2018-03-21T02:40:36.956Z,19.83
2018-03-21T02:43:02.940Z,16.40
2018-03-21T02:45:28.939Z,15.57
2018-03-21T02:47:54.970Z,19.55
2018-03-21T02:50:20.982Z,20.77
2018-03-21T02:52:47.056Z,14.80
2018-03-21T02:55:13.066Z,20.58
2018-03-21T02:57:39.122Z,20.58
2018-03-21T03:00:05.176Z,13.88
2018-03-21T03:02:31.195Z,18.90
2018-03-21T03:04:57.196Z,16.15
2018-03-21T03:07:23.231Z,10.82
2018-03-21T03:09:49.296Z,17.20
2018-03-21T03:12:15.328Z,15.38
2018-03-21T03:14:41.359Z,24.80
2018-03-21T03:17:07.364Z,17.00
2018-03-21T03:19:33.369Z,14.18
2018-03-21T03:21:59.382Z,14.32
2018-03-21T03:24:25.418Z,16.45
2018-03-21T03:26:51.479Z,15.10
2018-03-21T03:29:17.593Z,14.82
2018-03-21T03:31:43.570Z,12.77
2018-03-21T03:34:09.577Z,16.87
2018-03-21T03:36:35.646Z,22.83
2018-03-21T03:39:01.763Z,15.68
2018-03-21T03:41:27.791Z,12.35
2018-03-21T03:43:53.832Z,10.98
2018-03-21T03:46:19.866Z,15.05
2018-03-21T03:48:45.949Z,18.15
2018-03-21T03:51:11.949Z,11.82
2018-03-21T03:53:37.983Z,13.90
2018-03-21T03:56:04.099Z,11.95
2018-03-21T03:58:30.118Z,12.95
2018-03-21T04:00:56.125Z,18.12
2018-03-21T04:03:22.164Z,18.90
2018-03-21T04:05:48.275Z,21.92
2018-03-21T04:08:14.282Z,24.60
2018-03-21T04:10:40.302Z,17.77
2018-03-21T04:13:06.394Z,23.42
2018-03-21T04:15:32.468Z,14.05
2018-03-21T04:17:58.467Z,15.73
2018-03-21T04:20:24.534Z,18.50
2018-03-21T04:22:50.577Z,17.77
2018-03-21T04:25:16.567Z,10.85
2018-03-21T04:27:42.624Z,20.10
2018-03-21T04:30:08.621Z,9.52
2018-03-21T04:32:34.596Z,21.35
2018-03-21T04:35:00.584Z,20.02
2018-03-21T04:37:26.602Z,18.65
2018-03-21T04:39:52.854Z,18.02
2018-03-21T04:42:18.980Z,16.58
2018-03-21T04:44:45.019Z,13.13
2018-03-21T04:47:11.055Z,14.30
2018-03-21T04:49:37.083Z,17.67
2018-03-21T04:52:03.110Z,11.60
2018-03-21T04:54:29.172Z,15.25
2018-03-21T04:56:55.245Z,11.80
2018-03-21T04:59:21.283Z,12.95
2018-03-21T05:01:47.302Z,20.30
2018-03-21T05:04:13.350Z,15.68
2018-03-21T05:06:39.401Z,13.45
2018-03-21T05:09:06.105Z,12.98
2018-03-21T05:11:32.230Z,10.52
2018-03-21T05:13:58.223Z,25.15
2018-03-21T05:16:24.253Z,15.90
2018-03-21T05:18:50.342Z,10.35
2018-03-21T05:21:16.455Z,20.83
2018-03-21T05:23:42.441Z,17.80
2018-03-21T05:26:08.502Z,17.17
2018-03-21T05:28:34.626Z,6.95
2018-03-21T05:31:00.626Z,17.83
2018-03-21T05:33:26.637Z,13.82
2018-03-21T05:35:52.673Z,17.85
2018-03-21T05:38:18.718Z,11.18
2018-03-21T05:40:44.710Z,18.48
2018-03-21T05:43:10.743Z,20.33
2018-03-21T05:45:36.774Z,18.05
2018-03-21T05:48:02.776Z,11.52
2018-03-21T05:50:28.771Z,14.30
2018-03-21T05:52:54.755Z,12.13
2018-03-21T05:55:20.778Z,14.10
2018-03-21T05:57:46.762Z,14.40
2018-03-21T06:00:12.791Z,11.27
2018-03-21T06:02:38.896Z,12.02
2018-03-21T06:05:04.980Z,11.88
2018-03-21T06:07:30.975Z,14.13
2018-03-21T06:09:57.052Z,14.45
2018-03-21T06:12:23.051Z,16.80
2018-03-21T06:14:49.169Z,12.75
2018-03-21T06:17:15.226Z,15.20
2018-03-21T06:19:41.230Z,14.57
2018-03-21T06:22:07.246Z,12.65
2018-03-21T06:24:33.292Z,16.20
2018-03-21T06:26:59.370Z,20.10
2018-03-21T06:29:25.837Z,12.98
2018-03-21T06:31:52.045Z,11.05
2018-03-21T06:34:18.033Z,13.30
2018-03-21T06:36:44.177Z,13.73
2018-03-21T06:39:10.228Z,9.55
2018-03-21T06:41:37.179Z,12.60
2018-03-21T06:44:03.165Z,11.95
2018-03-21T06:46:29.171Z,10.80
2018-03-21T06:48:55.258Z,12.68
2018-03-21T06:51:21.275Z,10.93
2018-03-21T06:53:47.289Z,11.60
2018-03-21T06:56:13.318Z,8.75
2018-03-21T06:58:39.355Z,12.07
2018-03-21T07:01:05.364Z,12.55
2018-03-21T07:03:31.391Z,13.55
2018-03-21T07:05:57.462Z,14.87
2018-03-21T07:08:23.639Z,12.55
2018-03-21T07:10:49.668Z,11.43
2018-03-21T07:13:15.694Z,14.57
2018-03-21T07:15:53.732Z,15.93
2018-03-21T07:18:19.793Z,14.20
2018-03-21T07:20:45.864Z,18.20
2018-03-21T07:23:11.922Z,13.35
2018-03-21T07:25:37.975Z,11.43
2018-03-21T07:28:04.083Z,19.40
2018-03-21T07:30:30.138Z,22.98
2018-03-21T07:32:56.266Z,21.02
2018-03-21T07:35:22.293Z,19.92
2018-03-21T07:37:48.325Z,19.65
2018-03-21T07:40:14.347Z,26.70
2018-03-21T07:42:40.351Z,19.60
2018-03-21T07:45:06.376Z,23.30
2018-03-21T07:47:32.510Z,17.85
2018-03-21T07:49:58.572Z,20.62
2018-03-21T07:52:24.581Z,23.00
2018-03-21T07:54:50.655Z,16.87
2018-03-21T07:57:16.744Z,20.00
2018-03-21T07:59:42.789Z,26.87
2018-03-21T08:02:08.836Z,19.35
2018-03-21T08:04:34.846Z,25.12
2018-03-21T08:07:00.912Z,15.68
2018-03-21T08:09:26.974Z,17.10
2018-03-21T08:11:53.029Z,13.80
2018-03-21T08:14:19.082Z,13.18
2018-03-21T08:16:45.095Z,21.27
2018-03-21T08:19:11.106Z,15.25
2018-03-21T08:21:37.172Z,17.30
2018-03-21T08:24:03.217Z,16.60
2018-03-21T08:26:29.265Z,11.88
2018-03-21T08:28:55.314Z,12.93
2018-03-21T08:31:21.444Z,8.73
2018-03-21T08:33:47.526Z,13.90
2018-03-21T08:36:13.598Z,14.18
2018-03-21T08:38:39.643Z,14.73
2018-03-21T08:41:05.835Z,9.00
2018-03-21T08:43:31.970Z,9.85
2018-03-21T08:45:57.999Z,8.57
2018-03-21T08:48:24.114Z,10.48
2018-03-21T08:50:50.225Z,9.25
2018-03-21T08:53:16.366Z,8.02
2018-03-21T08:55:42.467Z,7.12
2018-03-21T08:58:08.488Z,5.93
2018-03-21T09:00:34.781Z,8.52
2018-03-21T09:03:00.905Z,7.57
2018-03-21T09:05:26.942Z,8.85
2018-03-21T09:07:53.028Z,10.98
2018-03-21T09:10:19.053Z,8.07
2018-03-21T09:12:45.104Z,3.22
2018-03-21T09:15:11.157Z,6.45
2018-03-21T09:17:37.216Z,8.93
2018-03-21T09:20:03.479Z,6.12
2018-03-21T09:22:29.485Z,7.90
2018-03-21T09:24:55.526Z,8.10
2018-03-21T09:27:21.644Z,5.22
2018-03-21T09:29:47.676Z,5.00
2018-03-21T09:32:13.734Z,4.22
2018-03-21T09:34:39.747Z,6.72
2018-03-21T09:37:05.862Z,5.90
2018-03-21T09:41:34.122Z,4.30
2018-03-21T09:44:00.331Z,5.15
2018-03-21T09:46:26.410Z,5.57
2018-03-21T09:48:52.439Z,7.12
2018-03-21T09:51:18.518Z,2.85
2018-03-21T09:53:44.613Z,5.45
2018-03-21T09:56:10.667Z,3.12
2018-03-21T09:58:36.689Z,4.07
2018-03-21T10:01:02.755Z,3.17
2018-03-21T10:03:28.852Z,3.30
2018-03-21T10:05:54.980Z,5.35
2018-03-21T10:08:21.054Z,4.70
2018-03-21T10:10:47.089Z,4.80
2018-03-21T10:13:13.120Z,4.12
2018-03-21T10:15:39.242Z,5.07
2018-03-21T10:18:05.329Z,4.32
2018-03-21T10:20:31.383Z,5.65
2018-03-21T10:22:57.494Z,6.95
2018-03-21T10:25:23.595Z,4.68
2018-03-21T10:27:49.694Z,5.70
2018-03-21T10:30:15.897Z,3.97
2018-03-21T10:32:41.948Z,4.03
2018-03-21T10:35:08.036Z,8.07
2018-03-21T10:37:34.173Z,5.62
2018-03-21T10:40:00.352Z,6.12
2018-03-21T10:42:26.475Z,3.90
2018-03-21T10:44:52.617Z,6.37
2018-03-21T10:47:25.548Z,4.07
2018-03-21T10:49:51.644Z,6.22
2018-03-21T10:52:17.703Z,3.75
2018-03-21T10:54:43.891Z,4.47
2018-03-21T10:57:10.033Z,3.50
2018-03-21T10:59:36.158Z,4.45
2018-03-21T11:02:08.208Z,5.93
2018-03-21T11:04:34.253Z,7.50
2018-03-21T11:07:00.404Z,7.57
2018-03-21T11:09:26.552Z,7.25
2018-03-21T11:11:52.589Z,6.50
2018-03-21T11:14:18.610Z,7.72
2018-03-21T11:16:44.649Z,7.47
2018-03-21T11:19:10.752Z,6.07
2018-03-21T11:21:36.772Z,7.32
2018-03-21T11:24:02.828Z,10.00
2018-03-21T11:26:28.890Z,6.78
2018-03-21T11:28:54.925Z,3.95
2018-03-21T11:31:20.988Z,5.97
2018-03-21T11:33:47.119Z,4.70
2018-03-21T11:36:13.140Z,5.72
2018-03-21T11:38:39.159Z,5.82
2018-03-21T11:41:05.235Z,6.93
2018-03-21T11:43:31.252Z,8.35
2018-03-21T11:45:57.338Z,6.93
2018-03-21T11:48:23.372Z,8.40
2018-03-21T11:50:49.405Z,6.72
2018-03-21T11:53:15.409Z,12.35
2018-03-21T11:55:41.469Z,8.77
2018-03-21T11:58:07.523Z,10.75
2018-03-21T12:00:33.664Z,7.97
2018-03-21T12:02:59.699Z,7.85
2018-03-21T12:05:25.743Z,8.85
2018-03-21T12:07:51.864Z,7.70
2018-03-21T12:10:17.986Z,10.57
2018-03-21T12:12:44.074Z,7.12
2018-03-21T12:15:10.136Z,9.43
2018-03-21T12:17:36.186Z,10.05
2018-03-21T12:20:02.352Z,5.57
2018-03-21T12:22:28.474Z,6.45
2018-03-21T12:24:54.492Z,4.72
2018-03-21T12:27:20.613Z,8.90
2018-03-21T12:29:46.632Z,6.47
2018-03-21T12:32:12.676Z,7.20
2018-03-21T12:34:38.701Z,9.40
2018-03-21T12:37:04.819Z,4.20
2018-03-21T12:39:30.887Z,7.37
2018-03-21T12:41:56.959Z,7.00
2018-03-21T12:44:23.058Z,9.90
2018-03-21T12:46:49.031Z,6.90
2018-03-21T12:49:15.053Z,7.50
2018-03-21T12:51:41.073Z,7.60
2018-03-21T12:54:07.166Z,9.23
2018-03-21T12:56:33.169Z,7.03
2018-03-21T12:58:59.219Z,6.13
2018-03-21T13:01:25.260Z,8.60
2018-03-21T13:03:51.264Z,6.87
2018-03-21T13:06:17.296Z,7.20
2018-03-21T13:08:43.322Z,7.83
2018-03-21T13:11:09.319Z,10.00
2018-03-21T13:13:35.423Z,6.77
2018-03-21T13:16:01.427Z,6.28
2018-03-21T13:18:27.506Z,5.87
2018-03-21T13:20:53.584Z,7.40
2018-03-21T13:23:19.678Z,8.13
2018-03-21T13:25:45.762Z,7.07
2018-03-21T13:28:11.874Z,9.30
2018-03-21T13:30:38.008Z,7.23
2018-03-21T13:33:04.095Z,6.70
2018-03-21T13:35:30.295Z,8.83
2018-03-21T13:37:56.445Z,8.03
2018-03-21T13:40:22.511Z,7.93
2018-03-21T13:42:48.626Z,9.77
2018-03-21T13:45:14.697Z,5.23
2018-03-21T13:47:40.776Z,10.10
2018-03-21T13:50:06.829Z,10.17
2018-03-21T13:52:32.832Z,5.65
2018-03-21T13:54:58.875Z,9.33
2018-03-21T13:57:24.967Z,6.90
2018-03-21T13:59:51.021Z,11.93
2018-03-21T14:02:17.062Z,6.83
2018-03-21T14:04:43.114Z,9.27
2018-03-21T14:07:09.205Z,8.57
2018-03-21T14:09:35.201Z,7.33
2018-03-21T14:12:01.302Z,7.63
2018-03-21T14:14:27.354Z,6.80
2018-03-21T14:16:53.362Z,11.43
2018-03-21T14:19:19.406Z,11.30
2018-03-21T14:21:45.448Z,8.47
2018-03-21T14:24:11.489Z,6.77
2018-03-21T14:26:37.629Z,7.83
2018-03-21T14:29:03.914Z,8.30
2018-03-21T14:31:29.976Z,6.97
2018-03-21T14:33:56.117Z,9.77
2018-03-21T14:36:22.145Z,9.33
2018-03-21T14:38:48.282Z,7.47
2018-03-21T14:41:14.353Z,8.77
2018-03-21T14:43:40.385Z,10.27
2018-03-21T14:46:06.483Z,10.80
2018-03-21T14:48:32.578Z,8.35
2018-03-21T14:50:58.585Z,8.07
2018-03-21T14:53:24.592Z,9.43
2018-03-21T14:55:50.682Z,12.20
2018-03-21T14:58:16.753Z,9.77
2018-03-21T15:00:42.787Z,10.13
2018-03-21T15:03:08.849Z,9.18
2018-03-21T15:05:34.869Z,8.30
2018-03-21T15:08:00.967Z,10.77
2018-03-21T15:10:27.027Z,7.80
2018-03-21T15:12:53.059Z,9.43
2018-03-21T15:15:19.118Z,10.30
2018-03-21T15:17:45.135Z,11.68
2018-03-21T15:20:11.139Z,9.60
2018-03-21T15:22:37.239Z,9.73
2018-03-21T15:25:03.263Z,7.73
2018-03-21T15:27:29.313Z,8.47
2018-03-21T15:29:55.409Z,10.63
2018-03-21T15:32:21.675Z,11.20
2018-03-21T15:34:47.733Z,9.70
2018-03-21T15:37:13.755Z,6.53
2018-03-21T15:39:39.878Z,10.17
2018-03-21T15:42:06.030Z,9.13
2018-03-21T15:44:32.109Z,9.63
2018-03-21T15:46:58.159Z,9.47
2018-03-21T15:49:24.305Z,12.53
2018-03-21T15:51:51.300Z,11.87
2018-03-21T15:54:17.420Z,9.07
2018-03-21T15:56:43.511Z,9.33
2018-03-21T15:59:09.568Z,8.43
2018-03-21T16:01:35.659Z,10.97
2018-03-21T16:04:02.309Z,9.00
2018-03-21T16:06:28.353Z,9.10
2018-03-21T16:08:54.471Z,15.03
2018-03-21T16:11:27.410Z,11.73
2018-03-21T16:13:53.494Z,10.95
2018-03-21T16:16:19.586Z,11.70
2018-03-21T16:18:45.671Z,10.05
2018-03-21T16:21:11.761Z,10.82
2018-03-21T16:23:38.490Z,9.07
2018-03-21T16:26:04.593Z,14.05
2018-03-21T16:28:30.730Z,11.40
2018-03-21T16:30:56.977Z,11.10
2018-03-21T16:33:22.986Z,11.75
2018-03-21T16:35:49.149Z,12.00
2018-03-21T16:38:15.333Z,15.55
2018-03-21T16:40:41.573Z,14.20
2018-03-21T16:43:07.643Z,12.35
2018-03-21T16:45:33.773Z,14.93
2018-03-21T16:47:59.858Z,12.40
2018-03-21T16:50:26.097Z,15.40
2018-03-21T16:52:52.155Z,13.00
2018-03-21T16:55:18.157Z,17.05
2018-03-21T16:57:44.283Z,14.02
2018-03-21T17:00:10.431Z,14.57
2018-03-21T17:02:36.487Z,13.90
2018-03-21T17:05:02.607Z,18.42
2018-03-21T17:07:28.659Z,15.65
2018-03-21T17:09:54.718Z,16.67
2018-03-21T17:12:20.758Z,18.58
2018-03-21T17:14:46.769Z,15.05
2018-03-21T17:17:12.805Z,19.37
2018-03-21T17:19:38.853Z,19.52
2018-03-21T17:22:04.866Z,22.50
2018-03-21T17:24:30.891Z,20.40
2018-03-21T17:26:56.919Z,17.45
2018-03-21T17:29:22.950Z,23.75
2018-03-21T17:31:49.847Z,21.12
2018-03-21T17:34:15.995Z,25.62
2018-03-21T17:36:45.225Z,18.23
2018-03-21T17:39:11.445Z,30.60
2018-03-21T17:41:37.485Z,25.98
2018-03-21T17:44:03.550Z,30.55
2018-03-21T17:46:29.614Z,27.77
2018-03-21T17:48:55.632Z,25.45
2018-03-21T17:51:21.699Z,26.40
2018-03-21T17:53:48.399Z,30.55
2018-03-21T17:56:14.479Z,32.72
2018-03-21T17:58:40.569Z,29.95
2018-03-21T18:01:06.622Z,28.15
2018-03-21T18:03:32.676Z,31.55
2018-03-21T18:05:58.897Z,30.88
2018-03-21T18:08:24.925Z,34.08
2018-03-21T18:10:51.039Z,22.35
2018-03-21T18:13:17.078Z,31.17
2018-03-21T18:15:43.119Z,31.75
2018-03-21T18:18:09.174Z,29.00
2018-03-21T18:20:35.294Z,29.15
2018-03-21T18:23:01.400Z,29.98
2018-03-21T18:25:27.584Z,27.27
2018-03-21T18:27:53.700Z,31.60
2018-03-21T18:30:19.822Z,31.60
2018-03-21T18:32:45.918Z,32.67
2018-03-21T18:35:12.023Z,28.48
2018-03-21T18:37:38.178Z,33.95
2018-03-21T18:40:04.328Z,26.77
2018-03-21T18:42:30.389Z,29.83
2018-03-21T18:44:56.523Z,27.58
2018-03-21T18:47:22.678Z,34.00
2018-03-21T18:49:48.820Z,27.80
2018-03-21T18:52:14.888Z,31.70
2018-03-21T18:54:40.954Z,32.42
2018-03-21T18:57:07.029Z,35.40
2018-03-21T18:59:33.114Z,24.50
2018-03-21T19:01:59.193Z,34.75
2018-03-21T19:04:25.362Z,30.58
2018-03-21T19:06:51.455Z,23.42
2018-03-21T19:11:12.262Z,24.12
2018-03-21T19:13:38.366Z,31.60
2018-03-21T19:16:04.422Z,23.85
2018-03-21T19:18:30.539Z,29.02
2018-03-21T19:20:56.682Z,23.55
2018-03-21T19:23:22.792Z,27.42
2018-03-21T19:25:48.890Z,28.15
2018-03-21T19:28:14.997Z,26.12
2018-03-21T19:30:41.187Z,22.37
2018-03-21T19:33:07.385Z,27.62
2018-03-21T19:35:33.494Z,22.37
2018-03-21T19:37:59.611Z,30.35
2018-03-21T19:40:25.868Z,20.75
2018-03-21T19:42:52.027Z,28.98
2018-03-21T19:45:18.290Z,23.25
2018-03-21T19:47:44.486Z,19.48
2018-03-21T19:50:10.645Z,20.62
2018-03-21T19:52:36.724Z,20.85
2018-03-21T19:55:02.831Z,25.15
2018-03-21T19:57:28.931Z,21.52
2018-03-21T19:59:55.017Z,29.75
2018-03-21T20:02:21.202Z,28.25
2018-03-21T20:04:47.326Z,19.87
2018-03-21T20:07:14.215Z,28.12
2018-03-21T20:09:40.493Z,30.73
2018-03-21T20:12:06.740Z,23.62
2018-03-21T20:14:33.004Z,25.30
2018-03-21T20:16:59.292Z,26.85
2018-03-21T20:19:25.446Z,27.62
2018-03-21T20:21:51.669Z,27.02
2018-03-21T20:24:18.069Z,27.48
2018-03-21T20:26:44.435Z,25.20
2018-03-21T20:29:11.365Z,30.20
2018-03-21T20:31:37.675Z,25.58
2018-03-21T20:34:04.503Z,27.30
2018-03-21T20:36:30.743Z,27.37
2018-03-21T20:38:57.003Z,26.50
2018-03-21T20:41:23.119Z,20.45
2018-03-21T20:43:49.315Z,31.40
2018-03-21T20:46:16.484Z,24.92
2018-03-21T20:48:42.671Z,30.45
2018-03-21T20:51:08.861Z,20.98
2018-03-21T20:53:35.089Z,30.27
2018-03-21T20:56:02.046Z,24.15
2018-03-21T20:58:28.254Z,28.15
2018-03-21T21:00:54.549Z,27.65
2018-03-21T21:03:22.134Z,30.17
2018-03-21T21:05:48.875Z,30.62
2018-03-21T21:08:15.012Z,28.60
2018-03-21T21:10:41.455Z,23.17
2018-03-21T21:13:07.551Z,30.95
2018-03-21T21:15:33.621Z,31.65
2018-03-21T21:17:59.698Z,29.30
2018-03-21T21:20:25.850Z,26.17
2018-03-21T21:22:52.030Z,22.25
2018-03-21T21:25:18.085Z,28.80
2018-03-21T21:27:44.140Z,26.15
2018-03-21T21:30:10.256Z,33.88
2018-03-21T21:32:36.339Z,26.23
2018-03-21T21:35:02.339Z,35.95
2018-03-21T21:37:28.410Z,30.73
2018-03-21T21:39:54.456Z,38.60
2018-03-21T21:42:20.574Z,32.47
2018-03-21T21:44:46.621Z,25.33
2018-03-21T21:47:12.647Z,33.28
2018-03-21T21:49:38.751Z,23.23
2018-03-21T21:52:04.791Z,31.90
2018-03-21T21:54:30.815Z,23.35
2018-03-21T21:56:56.842Z,34.15
2018-03-21T21:59:22.921Z,33.63
2018-03-21T22:01:55.892Z,28.35
2018-03-21T22:04:22.034Z,21.17
2018-03-21T22:06:48.055Z,29.10
2018-03-21T22:09:14.201Z,18.60
2018-03-21T22:11:40.274Z,23.08
2018-03-21T22:14:06.372Z,29.60
2018-03-21T22:16:32.541Z,26.25
2018-03-21T22:18:58.570Z,26.98
2018-03-21T22:21:24.622Z,23.38
2018-03-21T22:23:50.755Z,21.70
2018-03-21T22:26:16.768Z,22.55
2018-03-21T22:28:42.786Z,26.80
2018-03-21T22:31:08.812Z,22.52
2018-03-21T22:33:34.849Z,25.52
2018-03-21T22:36:00.958Z,26.08
2018-03-21T22:38:26.984Z,26.35
2018-03-21T22:40:53.029Z,30.15
2018-03-21T22:43:19.060Z,25.37
2018-03-21T22:45:45.048Z,21.87
2018-03-21T22:48:11.109Z,33.45
2018-03-21T22:50:37.150Z,26.00
2018-03-21T22:53:03.168Z,28.33
2018-03-21T22:55:29.219Z,21.33
2018-03-21T22:57:55.341Z,31.95
2018-03-21T23:00:21.494Z,24.02
2018-03-21T23:02:47.562Z,28.38
2018-03-21T23:05:13.619Z,20.75
2018-03-21T23:07:39.690Z,34.55
2018-03-21T23:10:06.481Z,27.50
2018-03-21T23:12:32.497Z,28.85
2018-03-21T23:14:58.552Z,28.23
2018-03-21T23:17:24.606Z,37.78
2018-03-21T23:19:51.546Z,36.15
2018-03-21T23:22:17.791Z,26.20
2018-03-21T23:24:43.875Z,27.60
2018-03-21T23:27:09.938Z,32.00
2018-03-21T23:29:35.976Z,30.10
2018-03-21T23:32:02.088Z,30.88
2018-03-21T23:34:28.201Z,29.40
2018-03-21T23:36:54.259Z,28.15
2018-03-21T23:39:20.294Z,32.60
2018-03-21T23:41:46.384Z,28.95
2018-03-21T23:44:12.486Z,21.30
2018-03-21T23:46:38.610Z,32.67
2018-03-21T23:49:04.642Z,20.42
2018-03-21T23:51:30.708Z,26.87
2018-03-21T23:53:56.768Z,23.05
2018-03-21T23:56:22.848Z,31.25
2018-03-21T23:58:49.118Z,23.20
